Time;durP1;ratioP1;P1;durP2;ratioP2;P2;SDS_P1;SDS_P2;PMS_P1;PMS_P2;Temp;Humidity;BMP_temperature;BMP_pressure;BME280_temperature;BME280_humidity;BME280_pressure;Samples;Min_cycle;Max_cycle;Signal;HPM_P1;HPM_P2
2022/07/15 00:01:12;;;;;;;;;6.00;2.25;;;;;25.05;37.91;101567.00;5027947;28;45665;-54
2022/07/15 00:03:38;;;;;;;;;2.75;2.75;;;;;25.08;37.72;101555.22;5035794;28;45392;-54
2022/07/15 00:06:03;;;;;;;;;1.50;1.50;;;;;25.10;37.75;101554.13;5035055;28;45383;-54
2022/07/15 00:08:28;;;;;;;;;3.00;2.25;;;;;25.11;37.63;101555.84;5020835;28;45737;-53
2022/07/15 00:10:54;;;;;;;;;2.75;2.25;;;;;25.14;37.66;101557.41;5016343;28;60798;-55
2022/07/15 00:13:20;;;;;;;;;3.00;3.00;;;;;25.15;37.73;101564.50;5037696;28;46508;-55
2022/07/15 00:15:45;;;;;;;;;4.00;4.00;;;;;25.16;37.72;101560.84;5033609;28;73080;-55
2022/07/15 00:18:11;;;;;;;;;3.00;3.00;;;;;25.18;37.75;101558.91;5034488;28;63842;-55
2022/07/15 00:20:37;;;;;;;;;6.00;4.00;;;;;25.19;37.89;101561.44;5033547;28;45725;-55
2022/07/15 00:23:04;;;;;;;;;3.25;3.25;;;;;25.21;37.81;101561.34;5032099;28;45374;-54
2022/07/15 00:25:29;;;;;;;;;5.00;3.25;;;;;25.23;37.91;101564.75;5025898;28;45452;-54
2022/07/15 00:27:59;;;;;;;;;6.50;4.50;;;;;25.24;37.64;101565.63;5045763;28;47265;-52
2022/07/15 00:30:29;;;;;;;;;5.75;4.25;;;;;25.25;37.65;101570.91;5033967;28;45813;-54
2022/07/15 00:32:54;;;;;;;;;6.50;4.75;;;;;25.26;37.88;101575.28;5019106;28;45355;-55
2022/07/15 00:35:20;;;;;;;;;5.50;4.00;;;;;25.28;37.95;101561.78;5031042;28;56491;-55
2022/07/15 00:37:46;;;;;;;;;6.00;5.00;;;;;25.29;37.94;101567.00;5036453;28;46997;-54
2022/07/15 00:40:12;;;;;;;;;6.00;5.25;;;;;25.28;38.01;101569.81;5028455;28;45440;-55
2022/07/15 00:42:46;;;;;;;;;6.25;5.50;;;;;25.32;37.94;101571.28;5023367;28;45360;-55
2022/07/15 00:45:15;;;;;;;;;9.00;7.50;;;;;25.33;38.00;101573.00;5028349;28;45513;-55
2022/07/15 00:47:45;;;;;;;;;8.50;6.25;;;;;25.34;37.92;101580.06;5034985;28;46219;-55
2022/07/15 00:50:12;;;;;;;;;8.00;7.50;;;;;25.35;38.03;101592.47;5030055;28;45470;-54
2022/07/15 00:52:50;;;;;;;;;5.00;5.00;;;;;25.35;38.02;101587.13;5033680;28;45593;-55
2022/07/15 00:55:16;;;;;;;;;7.50;7.00;;;;;25.36;38.11;101603.09;5027268;28;45383;-55
2022/07/15 00:57:44;;;;;;;;;6.50;5.00;;;;;25.36;38.01;101592.38;5032028;28;60181;-55
2022/07/15 01:00:11;;;;;;;;;7.00;6.00;;;;;25.38;38.05;101602.97;5031649;28;45810;-53
2022/07/15 01:02:38;;;;;;;;;8.75;7.25;;;;;25.37;38.18;101599.44;5032723;28;45358;-54
2022/07/15 01:05:05;;;;;;;;;8.25;6.50;;;;;25.39;38.08;101610.03;5030158;28;45550;-54
2022/07/15 01:07:30;;;;;;;;;7.00;5.25;;;;;25.38;38.26;101603.81;5031937;28;46747;-54
2022/07/15 01:09:55;;;;;;;;;7.75;7.00;;;;;25.39;38.21;101607.34;5032029;28;45715;-55
2022/07/15 01:12:21;;;;;;;;;11.00;8.00;;;;;25.39;38.30;101608.22;5031171;28;61064;-53
2022/07/15 01:14:47;;;;;;;;;11.00;8.00;;;;;25.41;38.39;101607.22;5036352;28;45391;-56
2022/07/15 01:17:12;;;;;;;;;8.25;5.50;;;;;25.40;38.09;101609.06;5033734;28;47265;-54
2022/07/15 01:19:38;;;;;;;;;6.00;6.00;;;;;25.39;38.15;101604.66;5030883;28;45426;-55
2022/07/15 01:22:04;;;;;;;;;8.00;7.00;;;;;25.40;38.47;101611.75;5037083;28;45328;-55
2022/07/15 01:24:30;;;;;;;;;7.00;5.00;;;;;25.40;38.36;101617.09;5013882;28;45874;-56
2022/07/15 01:26:55;;;;;;;;;6.50;5.75;;;;;25.40;38.36;101619.78;5023417;28;71018;-56
2022/07/15 01:29:20;;;;;;;;;6.50;6.50;;;;;25.41;38.45;101615.28;5025614;28;64686;-53
2022/07/15 01:31:46;;;;;;;;;6.75;5.50;;;;;25.41;38.50;101612.59;5021881;28;49712;-54
2022/07/15 01:34:11;;;;;;;;;6.50;5.00;;;;;25.39;38.48;101616.25;5028311;28;45540;-54
2022/07/15 01:36:37;;;;;;;;;5.25;4.00;;;;;25.41;38.38;101621.50;5031640;28;46236;-55
2022/07/15 01:39:02;;;;;;;;;4.25;4.25;;;;;25.40;38.54;101617.09;5024285;28;45274;-56
2022/07/15 01:41:28;;;;;;;;;7.25;5.00;;;;;25.40;38.58;101617.09;5030493;28;45380;-56
2022/07/15 01:43:53;;;;;;;;;5.25;4.75;;;;;25.41;38.25;101621.50;5023929;28;46613;-56
2022/07/15 01:46:18;;;;;;;;;6.50;4.00;;;;;25.40;38.37;101617.09;5030730;28;72820;-55
2022/07/15 01:51:29;;;;;;;;;7.00;4.00;;;;;25.41;38.71;101615.28;5034429;28;45272;-55
2022/07/15 01:53:54;;;;;;;;;7.50;6.00;;;;;25.42;38.57;101614.31;5045658;28;46118;-55
2022/07/15 01:56:20;;;;;;;;;8.50;6.00;;;;;25.42;38.46;101625.03;5028033;28;46467;-56
2022/07/15 01:58:45;;;;;;;;;9.25;7.25;;;;;25.41;38.55;101616.16;5030757;28;45463;-55
2022/07/15 02:01:11;;;;;;;;;7.75;7.75;;;;;25.42;38.63;101614.31;5032037;28;64318;-54
2022/07/15 02:03:36;;;;;;;;;7.50;7.50;;;;;25.41;38.64;101612.59;5032476;28;45408;-54
2022/07/15 02:06:02;;;;;;;;;7.25;6.50;;;;;25.40;38.74;101611.75;5034246;28;56501;-56
2022/07/15 02:08:27;;;;;;;;;7.50;5.50;;;;;25.41;38.72;101610.78;5029232;28;45585;-53
2022/07/15 02:10:52;;;;;;;;;7.00;3.25;;;;;25.39;38.51;101610.03;5023627;28;71467;-50
2022/07/15 02:13:18;;;;;;;;;6.25;6.00;;;;;25.41;38.67;101612.59;5031102;28;51833;-54
2022/07/15 02:15:43;;;;;;;;;8.25;4.25;;;;;25.40;38.64;101614.44;5033891;28;45650;-53
2022/07/15 02:18:10;;;;;;;;;9.75;6.75;;;;;25.40;38.62;101609.06;5029176;28;46038;-53
2022/07/15 02:20:36;;;;;;;;;5.50;5.00;;;;;25.41;38.44;101609.91;5033932;28;45393;-51
2022/07/15 02:23:01;;;;;;;;;4.00;4.00;;;;;25.40;38.65;101611.75;5033070;28;46621;-53
2022/07/15 02:25:32;;;;;;;;;6.00;4.50;;;;;25.38;38.77;101606.50;5028796;28;46497;-51
2022/07/15 02:28:00;;;;;;;;;2.75;2.00;;;;;25.39;38.81;101610.03;5033002;28;45338;-53
2022/07/15 02:30:36;;;;;;;;;6.00;4.75;;;;;25.39;38.62;101610.91;5030438;28;45509;-56
2022/07/15 02:33:02;;;;;;;;;4.00;4.00;;;;;25.39;38.71;101613.59;5027430;28;45538;-53
2022/07/15 02:35:28;;;;;;;;;5.25;4.25;;;;;25.39;38.50;101613.59;5025857;28;47333;-54
2022/07/15 02:37:54;;;;;;;;;3.50;3.25;;;;;25.39;38.74;101618.94;5028569;28;46472;-52
2022/07/15 02:40:21;;;;;;;;;5.00;5.00;;;;;25.39;38.59;101616.25;5029350;28;45400;-53
2022/07/15 02:42:48;;;;;;;;;6.75;4.25;;;;;25.38;38.90;101613.69;5030903;28;45280;-52
2022/07/15 02:45:14;;;;;;;;;2.50;2.50;;;;;25.39;38.71;101613.59;5027198;28;47189;-51
2022/07/15 02:47:39;;;;;;;;;5.25;5.00;;;;;25.38;38.62;101609.19;5031456;28;72019;-54
2022/07/15 02:50:05;;;;;;;;;4.50;4.00;;;;;25.38;38.66;101616.38;5033065;28;45460;-54
2022/07/15 02:52:30;;;;;;;;;6.50;5.25;;;;;25.38;38.80;101609.19;5030219;28;45342;-53
2022/07/15 02:54:56;;;;;;;;;3.50;3.50;;;;;25.38;38.70;101603.81;5027795;28;46123;-52
2022/07/15 02:57:21;;;;;;;;;4.75;3.25;;;;;25.38;38.91;101614.53;5036890;28;45297;-53
2022/07/15 02:59:47;;;;;;;;;4.00;3.25;;;;;25.38;38.66;101619.91;5032481;28;64143;-54
2022/07/15 03:02:12;;;;;;;;;3.00;3.00;;;;;25.38;38.80;101625.25;5029490;28;45452;-55
2022/07/15 03:04:37;;;;;;;;;3.00;3.00;;;;;25.37;38.39;101620.88;5030904;28;65193;-53
2022/07/15 03:07:03;;;;;;;;;4.00;4.00;;;;;25.38;38.77;101632.44;5038469;28;45434;-54
2022/07/15 03:09:28;;;;;;;;;4.50;3.25;;;;;25.38;38.73;101625.25;5035049;28;67454;-53
2022/07/15 03:11:53;;;;;;;;;3.75;2.50;;;;;25.37;38.98;101622.69;5036120;28;64998;-54
2022/07/15 03:14:19;;;;;;;;;3.00;3.00;;;;;25.38;38.89;101629.78;5033641;28;51565;-54
2022/07/15 03:16:45;;;;;;;;;4.00;4.00;;;;;25.38;39.04;101627.09;5034488;28;67011;-53
2022/07/15 03:19:10;;;;;;;;;2.25;2.25;;;;;25.38;38.93;101637.81;5032740;28;45350;-54
2022/07/15 03:21:36;;;;;;;;;3.75;2.75;;;;;25.36;39.05;101635.25;5032149;28;67796;-52
2022/07/15 03:24:01;;;;;;;;;2.25;2.25;;;;;25.36;38.89;101635.25;5027159;28;45978;-54
2022/07/15 03:26:26;;;;;;;;;5.00;3.25;;;;;25.38;38.69;101643.16;5031479;28;62971;-54
2022/07/15 03:28:52;;;;;;;;;5.25;3.50;;;;;25.37;38.91;101642.31;5027948;28;65240;-53
2022/07/15 03:31:17;;;;;;;;;3.25;3.25;;;;;25.37;38.71;101644.13;5033618;28;45636;-56
2022/07/15 03:33:43;;;;;;;;;4.00;2.75;;;;;25.36;38.90;101643.28;5030591;28;68478;-50
2022/07/15 03:36:08;;;;;;;;;3.50;3.50;;;;;25.37;39.13;101631.59;5035163;28;45697;-52
2022/07/15 03:38:33;;;;;;;;;7.00;4.50;;;;;25.35;38.93;101630.84;5024901;28;64725;-51
2022/07/15 03:40:59;;;;;;;;;7.00;4.25;;;;;25.37;38.97;101631.59;5034710;28;45578;-54
2022/07/15 03:43:26;;;;;;;;;5.00;4.00;;;;;25.37;39.12;101634.28;5028717;28;70681;-56
2022/07/15 03:45:52;;;;;;;;;5.25;4.00;;;;;25.37;39.07;101625.38;5032964;28;45431;-52
2022/07/15 03:48:18;;;;;;;;;3.00;3.00;;;;;25.36;39.15;101623.69;5028186;28;45530;-53
2022/07/15 03:50:43;;;;;;;;;3.25;3.00;;;;;25.37;38.98;101625.38;5031741;28;45316;-53
2022/07/15 03:53:09;;;;;;;;;3.75;2.00;;;;;25.37;38.76;101623.56;5016469;28;72163;-54
2022/07/15 03:55:37;;;;;;;;;3.25;3.25;;;;;25.36;39.00;101619.16;5031611;28;45335;-54
2022/07/15 03:58:03;;;;;;;;;4.50;3.00;;;;;25.36;38.78;101629.03;5033774;28;45302;-54
2022/07/15 04:00:29;;;;;;;;;2.00;2.00;;;;;25.36;38.90;101627.19;5033611;28;46345;-53
2022/07/15 04:02:54;;;;;;;;;6.75;3.75;;;;;25.36;38.99;101631.72;5031201;28;45415;-53
2022/07/15 04:05:20;;;;;;;;;4.00;2.50;;;;;25.35;39.08;101630.00;5034602;28;45530;-53
2022/07/15 04:07:46;;;;;;;;;3.50;3.50;;;;;25.35;39.08;101638.03;5030735;28;45423;-54
2022/07/15 04:10:12;;;;;;;;;3.25;3.25;;;;;25.34;38.68;101639.88;5033734;28;46018;-54
2022/07/15 04:12:37;;;;;;;;;3.25;3.25;;;;;25.35;38.98;101644.25;5033376;28;45943;-54
2022/07/15 04:15:03;;;;;;;;;3.00;2.25;;;;;25.33;38.82;101639.97;5031055;28;57891;-52
2022/07/15 04:17:28;;;;;;;;;2.50;1.25;;;;;25.34;39.06;101647.06;5032375;28;45439;-53
2022/07/15 04:19:54;;;;;;;;;4.00;3.00;;;;;25.33;38.80;101650.69;5028006;28;62620;-51
2022/07/15 04:22:19;;;;;;;;;4.25;3.00;;;;;25.33;38.95;101653.38;5032058;28;66132;-54
2022/07/15 04:24:45;;;;;;;;;4.25;2.75;;;;;25.31;38.96;101650.81;5027530;28;45538;-53
2022/07/15 04:27:10;;;;;;;;;4.75;2.75;;;;;25.31;38.95;101652.66;5026193;28;64363;-54
2022/07/15 04:29:36;;;;;;;;;1.25;1.25;;;;;25.31;39.18;101645.44;5031126;28;45498;-54
2022/07/15 04:32:02;;;;;;;;;3.75;2.25;;;;;25.31;39.18;101649.97;5027629;28;45958;-52
2022/07/15 04:34:27;;;;;;;;;3.00;1.75;;;;;25.30;39.10;101650.91;5032382;28;45781;-52
2022/07/15 04:36:52;;;;;;;;;2.00;1.50;;;;;25.29;38.94;101647.41;5031820;28;45584;-50
2022/07/15 04:39:18;;;;;;;;;5.00;3.00;;;;;25.30;39.03;101649.13;5031356;28;61181;-55
2022/07/15 04:41:43;;;;;;;;;2.25;2.25;;;;;25.29;39.16;101650.06;5028009;28;45873;-53
2022/07/15 04:44:08;;;;;;;;;2.75;2.50;;;;;25.29;39.17;101655.44;5028986;28;45407;-54
2022/07/15 04:46:34;;;;;;;;;3.25;1.50;;;;;25.29;39.05;101658.09;5033744;28;66009;-54
2022/07/15 04:51:43;;;;;;;;;3.00;3.00;;;;;25.29;39.23;101659.94;5037720;28;45364;-54
2022/07/15 04:54:09;;;;;;;;;5.75;2.50;;;;;25.28;39.02;101660.91;5030863;28;62170;-54
2022/07/15 04:56:34;;;;;;;;;2.25;2.00;;;;;25.29;38.92;101666.16;5034026;28;45609;-55
2022/07/15 04:58:59;;;;;;;;;2.25;1.25;;;;;25.29;39.01;101662.63;5028358;28;69297;-53
2022/07/15 05:01:25;;;;;;;;;2.75;2.75;;;;;25.28;38.83;101660.91;5034374;28;61730;-54
2022/07/15 05:03:50;;;;;;;;;2.25;2.00;;;;;25.28;39.16;101666.25;5027856;28;62424;-54
2022/07/15 05:06:15;;;;;;;;;2.00;2.00;;;;;25.28;39.24;101671.63;5036425;28;68108;-54
2022/07/15 05:08:41;;;;;;;;;2.50;1.25;;;;;25.26;39.05;101671.72;5030456;28;72371;-54
2022/07/15 05:11:06;;;;;;;;;1.00;1.00;;;;;25.27;39.20;101673.44;5036051;28;58368;-55
2022/07/15 05:13:31;;;;;;;;;3.25;2.00;;;;;25.29;39.36;101676.03;5031761;28;45442;-54
2022/07/15 05:15:57;;;;;;;;;2.00;2.00;;;;;25.28;38.90;101680.50;5028346;28;45420;-54
2022/07/15 05:18:22;;;;;;;;;1.25;1.25;;;;;25.30;39.13;101680.38;5035751;28;68361;-52
2022/07/15 05:20:48;;;;;;;;;3.75;2.00;;;;;25.28;39.16;101676.97;5030505;28;55632;-54
2022/07/15 05:23:16;;;;;;;;;1.25;0.50;;;;;25.29;38.86;101684.06;5032450;28;45431;-54
2022/07/15 05:25:42;;;;;;;;;1.75;1.75;;;;;25.28;39.18;101679.66;5029904;28;45399;-54
2022/07/15 05:28:08;;;;;;;;;4.00;1.00;;;;;25.27;39.32;101680.59;5021769;28;68769;-55
2022/07/15 05:30:36;;;;;;;;;0.25;0.25;;;;;25.28;39.12;101685.00;5029467;28;45372;-54
2022/07/15 05:33:02;;;;;;;;;1.50;1.25;;;;;25.29;39.25;101681.38;5023401;28;45929;-56
2022/07/15 05:35:27;;;;;;;;;2.00;1.25;;;;;25.28;39.40;101685.00;5027196;28;56507;-55
2022/07/15 05:37:53;;;;;;;;;2.25;2.00;;;;;25.28;39.29;101693.06;5033047;28;45579;-56
2022/07/15 05:40:18;;;;;;;;;3.00;1.50;;;;;25.29;39.47;101692.09;5031045;28;45480;-56
2022/07/15 05:42:43;;;;;;;;;1.00;1.00;;;;;25.29;39.21;101694.78;5030642;28;45259;-54
2022/07/15 05:45:09;;;;;;;;;1.00;1.00;;;;;25.29;39.36;101700.13;5027486;28;46311;-55
2022/07/15 05:47:35;;;;;;;;;1.00;1.00;;;;;25.29;39.23;101700.97;5033082;28;45526;-56
2022/07/15 05:50:00;;;;;;;;;1.00;1.00;;;;;25.29;39.19;101702.81;5033401;28;45475;-56
2022/07/15 05:52:25;;;;;;;;;1.00;0.25;;;;;25.28;39.34;101706.44;5033155;28;46252;-56
2022/07/15 05:54:51;;;;;;;;;1.00;1.00;;;;;25.27;39.16;101700.25;5025617;28;45656;-55
2022/07/15 05:57:16;;;;;;;;;3.00;1.00;;;;;25.29;39.48;101714.38;5024094;28;45210;-54
2022/07/15 05:59:42;;;;;;;;;1.00;1.00;;;;;25.29;39.51;101711.69;5028006;28;49273;-54
2022/07/15 06:02:08;;;;;;;;;2.50;1.00;;;;;25.30;39.30;101704.50;5033977;28;45486;-52
2022/07/15 06:04:33;;;;;;;;;2.00;1.25;;;;;25.29;39.37;101702.81;5028032;28;66231;-54
2022/07/15 06:06:58;;;;;;;;;0.75;0.75;;;;;25.29;39.45;101705.50;5033932;28;45668;-53
2022/07/15 06:09:24;;;;;;;;;1.50;1.50;;;;;25.29;39.33;101700.97;5029840;28;72378;-53
2022/07/15 06:11:49;;;;;;;;;2.00;1.00;;;;;25.29;39.58;101709.03;5031162;28;45893;-54
2022/07/15 06:14:15;;;;;;;;;2.00;2.00;;;;;25.30;39.33;101705.38;5027423;28;45374;-52
2022/07/15 06:16:41;;;;;;;;;1.00;1.00;;;;;25.30;39.43;101702.72;5049311;28;45424;-54
2022/07/15 06:19:08;;;;;;;;;1.75;1.00;;;;;25.29;39.69;101698.31;5030673;28;45280;-54
2022/07/15 06:21:34;;;;;;;;;1.00;0.25;;;;;25.30;39.43;101694.66;5030951;28;45414;-54
2022/07/15 06:24:00;;;;;;;;;2.75;1.00;;;;;25.31;39.48;101696.34;5033083;28;45309;-52
2022/07/15 06:26:25;;;;;;;;;1.00;1.00;;;;;25.32;39.43;101700.75;5034191;28;57455;-53
2022/07/15 06:28:50;;;;;;;;;1.00;0.25;;;;;25.31;39.67;101709.75;5026551;28;46541;-54
2022/07/15 06:31:16;;;;;;;;;2.00;1.00;;;;;25.33;39.48;101696.25;5035819;28;45533;-52
2022/07/15 06:33:41;;;;;;;;;2.00;1.50;;;;;25.32;39.54;101707.91;5026903;28;61372;-52
2022/07/15 06:36:07;;;;;;;;;1.00;1.00;;;;;25.32;39.59;101708.81;5038107;28;57279;-52
2022/07/15 06:38:32;;;;;;;;;0.50;0.00;;;;;25.34;39.16;101714.91;5039543;28;46008;-52
2022/07/15 06:40:58;;;;;;;;;0.25;0.25;;;;;25.33;39.72;101706.97;5038067;28;45464;-51
2022/07/15 06:43:23;;;;;;;;;0.50;0.50;;;;;25.34;39.27;101709.53;5038269;28;45450;-52
2022/07/15 06:45:49;;;;;;;;;4.00;2.75;;;;;25.32;39.61;101711.47;5037697;28;45557;-54
2022/07/15 06:48:15;;;;;;;;;2.50;1.75;;;;;25.33;39.85;101715.84;5032537;28;48421;-55
2022/07/15 06:50:40;;;;;;;;;3.50;2.00;;;;;25.35;39.73;101719.28;5025701;28;66724;-53
2022/07/15 06:53:05;;;;;;;;;1.00;0.25;;;;;25.34;39.56;101722.94;5038566;28;45440;-51
2022/07/15 06:55:31;;;;;;;;;0.50;0.50;;;;;25.36;39.45;101718.31;5033762;28;45370;-55
2022/07/15 06:57:56;;;;;;;;;2.00;1.00;;;;;25.37;39.29;101725.41;5033692;28;65515;-51
2022/07/15 07:00:22;;;;;;;;;2.50;2.00;;;;;25.38;39.42;101723.56;5035254;28;52764;-58
2022/07/15 07:02:47;;;;;;;;;1.75;1.25;;;;;25.38;39.56;101723.56;5028967;28;64157;-55
2022/07/15 07:05:12;;;;;;;;;1.75;1.75;;;;;25.38;39.95;101719.03;5033764;28;45443;-56
2022/07/15 07:07:38;;;;;;;;;1.00;1.00;;;;;25.39;39.61;101722.56;5038963;28;45395;-55
2022/07/15 07:10:04;;;;;;;;;2.75;1.00;;;;;25.41;39.69;101725.16;5039258;28;45404;-54
2022/07/15 07:12:29;;;;;;;;;0.50;0.25;;;;;25.41;39.64;101722.47;5034865;28;45415;-55
2022/07/15 07:14:54;;;;;;;;;1.50;1.50;;;;;25.42;39.71;101722.34;5030342;28;46908;-54
2022/07/15 07:17:20;;;;;;;;;2.00;2.00;;;;;25.42;39.77;101722.34;5035152;28;75591;-56
2022/07/15 07:19:45;;;;;;;;;3.25;2.25;;;;;25.43;39.61;101721.41;5031339;28;45460;-55
2022/07/15 07:22:10;;;;;;;;;2.25;1.00;;;;;25.43;39.53;101724.06;5031237;28;45644;-56
2022/07/15 07:24:36;;;;;;;;;3.25;1.00;;;;;25.44;39.60;101722.25;5031602;28;50503;-55
2022/07/15 07:27:01;;;;;;;;;3.50;2.00;;;;;25.44;39.38;101717.72;5023603;28;66830;-55
2022/07/15 07:29:26;;;;;;;;;2.00;2.00;;;;;25.45;39.63;101722.13;5031823;28;45214;-54
2022/07/15 07:31:52;;;;;;;;;1.50;1.50;;;;;25.45;39.77;101713.25;5036325;28;45375;-56
2022/07/15 07:34:18;;;;;;;;;5.00;1.25;;;;;25.47;39.89;101717.50;5042340;28;45730;-54
2022/07/15 07:36:44;;;;;;;;;3.75;2.50;;;;;25.45;37.64;101718.59;5032016;28;45860;-51
2022/07/15 07:39:10;;;;;;;;;5.00;4.75;;;;;25.30;37.21;101710.75;5028165;28;45299;-52
2022/07/15 07:41:35;;;;;;;;;2.75;1.25;;;;;25.13;37.38;101711.94;5030014;28;45452;-53
2022/07/15 07:44:01;;;;;;;;;4.00;3.25;;;;;24.97;37.07;101714.03;5032851;28;46976;-51
2022/07/15 07:46:26;;;;;;;;;4.75;3.25;;;;;24.80;36.71;101718.75;5031550;28;68115;-51
2022/07/15 07:48:51;;;;;;;;;6.00;3.00;;;;;24.64;36.80;101708.28;5024790;28;45426;-51
2022/07/15 07:51:17;;;;;;;;;4.25;4.25;;;;;24.58;36.95;101711.41;5029512;28;57475;-52
2022/07/15 07:53:43;;;;;;;;;3.00;2.50;;;;;24.53;36.81;101707.31;5029435;28;45384;-52
2022/07/15 07:56:08;;;;;;;;;5.00;4.00;;;;;24.47;36.28;101705.06;5034554;28;46065;-53
2022/07/15 07:58:35;;;;;;;;;4.50;4.00;;;;;24.37;36.59;101710.22;5033230;28;45363;-56
2022/07/15 08:01:01;;;;;;;;;5.00;3.00;;;;;24.27;36.79;101701.97;5041314;28;45458;-54
2022/07/15 08:03:27;;;;;;;;;2.75;2.75;;;;;24.25;36.85;101701.22;5038265;28;45484;-51
2022/07/15 08:05:53;;;;;;;;;3.75;3.00;;;;;24.21;36.87;101700.59;5023006;28;45424;-49
2022/07/15 08:08:20;;;;;;;;;4.00;3.00;;;;;24.19;36.45;101701.66;5036889;28;45372;-49
2022/07/15 08:10:52;;;;;;;;;3.00;2.00;;;;;24.16;35.99;101705.41;5032208;28;45613;-50
2022/07/15 08:13:19;;;;;;;;;2.50;2.50;;;;;24.12;35.88;101695.88;5035016;28;45530;-49
2022/07/15 08:15:45;;;;;;;;;4.00;4.00;;;;;24.08;35.75;101702.38;5036878;28;45490;-51
2022/07/15 08:18:11;;;;;;;;;4.00;2.00;;;;;24.06;35.35;101698.97;5029221;28;45319;-49
2022/07/15 08:20:37;;;;;;;;;3.50;1.50;;;;;24.03;35.42;101691.16;5033468;28;45806;-51
2022/07/15 08:23:03;;;;;;;;;5.00;2.00;;;;;24.00;35.60;101697.56;5039642;28;45557;-51
2022/07/15 08:25:30;;;;;;;;;3.00;3.00;;;;;23.97;35.51;101695.09;5029258;28;46342;-46
2022/07/15 08:27:56;;;;;;;;;4.25;2.75;;;;;23.96;35.28;101692.56;5036387;28;45656;-51
2022/07/15 08:30:22;;;;;;;;;6.00;3.75;;;;;23.96;35.39;101693.41;5032963;28;45487;-48
2022/07/15 08:32:48;;;;;;;;;5.50;3.00;;;;;23.95;35.44;101689.00;5028830;28;45697;-52
2022/07/15 08:35:13;;;;;;;;;3.25;2.00;;;;;23.95;35.40;101698.84;5028414;28;45689;-47
2022/07/15 08:37:39;;;;;;;;;3.00;3.00;;;;;23.94;35.00;101711.38;5031792;28;45387;-51
2022/07/15 08:40:08;;;;;;;;;4.00;2.75;;;;;23.92;35.18;101704.41;5027831;28;45439;-52
2022/07/15 08:42:33;;;;;;;;;3.00;1.00;;;;;23.91;35.11;101703.56;5027509;28;45963;-53
2022/07/15 08:44:58;;;;;;;;;3.00;3.00;;;;;23.93;35.17;101698.94;5031491;28;57557;-51
2022/07/15 08:47:24;;;;;;;;;3.50;2.00;;;;;23.92;35.09;101694.59;5035767;28;45269;-50
2022/07/15 08:49:55;;;;;;;;;3.75;3.00;;;;;23.91;35.19;101692.84;5034397;28;45425;-51
2022/07/15 08:52:22;;;;;;;;;3.25;3.25;;;;;23.88;34.91;101677.88;5025854;28;45496;-53
2022/07/15 08:54:48;;;;;;;;;2.50;2.50;;;;;23.90;34.94;101683.13;5026551;28;47222;-48
2022/07/15 08:57:14;;;;;;;;;3.00;3.00;;;;;23.95;35.03;101680.13;5030799;28;45380;-54
2022/07/15 08:59:39;;;;;;;;;4.00;2.00;;;;;23.99;34.94;101679.84;5026182;28;60822;-50
2022/07/15 09:02:05;;;;;;;;;1.25;1.25;;;;;24.03;35.19;101670.63;5031531;28;45304;-50
2022/07/15 09:04:30;;;;;;;;;3.50;2.50;;;;;24.08;34.75;101675.63;5029152;28;70992;-52
2022/07/15 09:07:03;;;;;;;;;2.50;2.00;;;;;24.13;34.72;101673.50;5018669;28;66565;-50
2022/07/15 09:09:30;;;;;;;;;1.25;1.25;;;;;24.17;34.59;101679.50;5031510;28;45448;-52
2022/07/15 09:12:02;;;;;;;;;1.50;1.50;;;;;24.23;35.01;101679.09;5036973;28;45373;-49
2022/07/15 09:14:29;;;;;;;;;3.00;2.00;;;;;24.30;35.09;101664.31;5029466;28;47766;-54
2022/07/15 09:17:20;;;;;;;;;5.00;2.00;;;;;24.38;35.30;101678.00;5033758;28;45510;-52
2022/07/15 09:20:04;;;;;;;;;2.00;2.00;;;;;24.48;35.24;101672.00;5025484;28;45912;-50
2022/07/15 09:22:32;;;;;;;;;1.00;1.00;;;;;24.54;35.46;101671.59;5029198;28;45417;-57
2022/07/15 09:25:16;;;;;;;;;1.25;0.25;;;;;24.60;35.51;101679.19;5027671;28;46959;-53
2022/07/15 09:27:43;;;;;;;;;3.25;2.00;;;;;24.68;35.52;101684.00;5037454;28;45703;-55
2022/07/15 09:36:02;;;;;;;;;2.00;2.00;;;;;24.86;35.67;101681.81;5031592;28;45567;-56
2022/07/15 09:38:41;;;;;;;;;1.50;1.00;;;;;24.90;35.81;101676.13;5034336;28;45462;-58
2022/07/15 09:41:09;;;;;;;;;3.25;1.00;;;;;24.95;35.76;101673.13;5030905;28;45470;-56
2022/07/15 09:43:49;;;;;;;;;0.50;0.50;;;;;24.98;35.76;101670.19;5048087;28;45300;-57
2022/07/15 09:46:16;;;;;;;;;1.25;1.25;;;;;25.02;35.75;101659.16;5036131;28;45474;-57
2022/07/15 09:48:43;;;;;;;;;1.50;1.50;;;;;25.06;35.90;101661.63;5029923;28;45389;-57
2022/07/15 09:51:09;;;;;;;;;4.25;1.00;;;;;25.09;36.22;101664.94;5035155;28;45410;-56
2022/07/15 09:53:35;;;;;;;;;5.00;2.00;;;;;25.15;35.86;101672.50;5036132;28;45454;-56
2022/07/15 09:56:02;;;;;;;;;1.00;0.25;;;;;25.20;36.03;101664.13;5007492;28;48532;-56
2022/07/15 09:58:29;;;;;;;;;1.75;1.00;;;;;25.27;35.72;101668.09;5028669;28;45504;-58
2022/07/15 10:00:54;;;;;;;;;2.25;1.00;;;;;25.35;35.36;101664.84;5032649;28;45471;-57
2022/07/15 10:03:22;;;;;;;;;1.50;0.25;;;;;25.44;35.52;101666.81;5009447;28;45429;-58
2022/07/15 10:05:51;;;;;;;;;3.75;1.25;;;;;25.52;35.76;101661.75;5026354;28;45561;-57
2022/07/15 10:08:17;;;;;;;;;1.00;1.00;;;;;25.58;35.67;101663.94;5037405;28;45343;-57
2022/07/15 10:10:43;;;;;;;;;1.25;1.00;;;;;25.65;35.68;101658.13;5029844;28;69412;-58
2022/07/15 10:13:37;;;;;;;;;1.00;1.00;;;;;25.73;35.35;101661.09;5030481;28;66816;-57
2022/07/15 10:16:08;;;;;;;;;2.50;0.50;;;;;25.81;35.50;101674.75;5019397;28;45455;-57
2022/07/15 10:18:59;;;;;;;;;0.50;0.25;;;;;25.90;35.43;101659.78;5027794;28;45788;-58
2022/07/15 10:21:30;;;;;;;;;0.25;0.25;;;;;25.99;35.30;101666.28;5033262;28;45314;-58
2022/07/15 10:24:25;;;;;;;;;1.00;1.00;;;;;26.10;35.49;101663.59;5029622;28;45586;-58
2022/07/15 10:27:20;;;;;;;;;1.00;1.00;;;;;26.24;35.07;101657.16;5005578;28;47542;-58
2022/07/15 10:29:46;;;;;;;;;0.50;0.50;;;;;26.36;35.02;101645.44;5028709;28;45739;-58
2022/07/15 10:32:11;;;;;;;;;1.75;0.25;;;;;26.49;35.17;101650.72;5031699;28;66990;-58
2022/07/15 10:34:38;;;;;;;;;1.00;1.00;;;;;26.61;35.22;101640.81;5041859;28;45481;-58
2022/07/15 10:37:10;;;;;;;;;1.25;1.00;;;;;26.77;34.49;101649.34;5032429;28;46140;-58
2022/07/15 10:39:50;;;;;;;;;0.00;0.00;;;;;26.98;34.82;101640.53;5031251;28;45805;-58
2022/07/15 10:42:17;;;;;;;;;0.00;0.00;;;;;27.29;34.49;101630.81;5026001;28;45523;-57
2022/07/15 10:45:06;;;;;;;;;0.50;0.50;;;;;27.51;34.08;101632.53;5028578;28;45316;-58
2022/07/15 10:47:32;;;;;;;;;1.00;0.25;;;;;27.59;34.19;101632.72;5030477;28;45824;-53
2022/07/15 10:49:58;;;;;;;;;1.00;1.00;;;;;27.79;34.49;101622.94;5033318;28;45558;-51
2022/07/15 10:52:25;;;;;;;;;1.25;0.25;;;;;28.21;33.76;101620.22;5034418;28;45289;-52
2022/07/15 10:54:56;;;;;;;;;0.00;0.00;;;;;28.81;33.28;101618.56;5032500;28;45521;-54
2022/07/15 10:57:39;;;;;;;;;0.25;0.00;;;;;29.39;32.88;101623.19;5027058;28;45493;-55
2022/07/15 11:00:06;;;;;;;;;0.25;0.00;;;;;29.77;32.41;101616.91;5038244;28;45230;-54
2022/07/15 11:02:31;;;;;;;;;2.50;0.00;;;;;30.10;32.05;101618.22;5031641;28;45341;-54
2022/07/15 11:05:18;;;;;;;;;2.00;0.00;;;;;30.44;31.84;101616.84;5030448;28;45533;-53
2022/07/15 11:07:43;;;;;;;;;1.00;0.75;;;;;30.76;31.55;101613.66;5034784;28;45885;-51
2022/07/15 11:10:08;;;;;;;;;1.00;0.75;;;;;31.12;30.57;101612.84;5023844;28;68273;-55
2022/07/15 11:12:35;;;;;;;;;1.00;0.00;;;;;31.40;30.00;101606.31;5029880;28;45464;-52
2022/07/15 11:15:23;;;;;;;;;0.00;0.00;;;;;31.61;30.58;101607.88;5030679;28;45556;-57
2022/07/15 11:17:50;;;;;;;;;0.00;0.00;;;;;31.87;31.21;101615.13;5033998;28;46099;-50
2022/07/15 11:20:20;;;;;;;;;1.50;0.00;;;;;32.37;30.91;101617.09;5031563;28;45531;-51
2022/07/15 11:22:50;;;;;;;;;1.25;0.00;;;;;32.96;30.49;101613.56;5041270;28;45386;-47
2022/07/15 11:25:27;;;;;;;;;0.00;0.00;;;;;33.64;30.18;101604.22;5036028;28;45518;-48
2022/07/15 11:28:08;;;;;;;;;2.00;1.50;;;;;34.61;29.61;101604.09;5040275;28;47300;-49
2022/07/15 11:30:49;;;;;;;;;8.75;6.25;;;;;35.82;28.50;101594.31;5038895;28;45497;-51
2022/07/15 11:33:16;;;;;;;;;19.25;16.25;;;;;34.84;28.27;101608.75;5033730;28;45511;-49
2022/07/15 11:35:49;;;;;;;;;42.25;31.75;;;;;33.51;29.59;101595.78;5037418;28;45548;-51